Time;durP1;ratioP1;P1;durP2;ratioP2;P2;SDS_P1;SDS_P2;PMS_P1;PMS_P2;Temp;Humidity;BMP_temperature;BMP_pressure;BME280_temperature;BME280_humidity;BME280_pressure;Samples;Min_cycle;Max_cycle;Signal;HPM_P1;HPM_P2
2022/01/17 00:01:52;;;;;;;9.97;4.57;;;;;;;-1.17;77.56;97036.69;5029698;28;20053;-65
2022/01/17 00:04:20;;;;;;;12.37;5.00;;;;;;;-1.15;77.31;97046.94;5030304;28;20044;-66
2022/01/17 00:06:47;;;;;;;10.33;4.33;;;;;;;-1.16;77.78;97038.34;5030858;28;20107;-65
2022/01/17 00:09:15;;;;;;;8.13;4.40;;;;;;;-1.18;78.39;97045.34;5030626;28;20037;-65
2022/01/17 00:11:44;;;;;;;24.37;8.50;;;;;;;-1.17;78.56;97047.00;5030738;28;20414;-65
2022/01/17 00:14:17;;;;;;;15.33;5.87;;;;;;;-1.20;78.64;97036.78;5029101;28;20051;-64
2022/01/17 00:16:49;;;;;;;18.50;6.53;;;;;;;-1.22;78.40;97048.91;5030639;28;20458;-65
2022/01/17 00:19:36;;;;;;;10.95;4.53;;;;;;;-1.21;78.44;97044.56;5031358;28;20041;-65
2022/01/17 00:22:03;;;;;;;11.03;5.40;;;;;;;-1.27;78.48;97048.19;5031167;28;20049;-65
2022/01/17 00:24:31;;;;;;;11.03;4.30;;;;;;;-1.31;79.19;97056.94;5030161;28;20037;-65
2022/01/17 00:26:58;;;;;;;15.13;5.80;;;;;;;-1.33;79.48;97052.72;5030365;28;20037;-65
2022/01/17 00:29:27;;;;;;;11.50;4.40;;;;;;;-1.35;79.55;97051.94;5028784;28;20037;-65
2022/01/17 00:31:54;;;;;;;12.93;5.03;;;;;;;-1.36;79.54;97045.09;5030080;28;20042;-65
2022/01/17 00:34:21;;;;;;;12.60;4.13;;;;;;;-1.32;79.28;97039.78;5030139;28;20509;-65
2022/01/17 00:37:38;;;;;;;12.30;5.97;;;;;;;-1.31;79.76;97032.91;5031070;28;20137;-65
2022/01/17 00:40:31;;;;;;;19.63;6.87;;;;;;;-1.28;79.57;97043.13;5010426;28;20056;-64
2022/01/17 00:42:58;;;;;;;12.73;5.63;;;;;;;-1.24;79.47;97032.63;5011000;28;20054;-65
2022/01/17 00:45:29;;;;;;;13.53;5.53;;;;;;;-1.22;79.57;97038.59;5010869;28;20434;-64
2022/01/17 00:48:00;;;;;;;13.10;5.17;;;;;;;-1.19;79.33;97030.75;5010181;28;20155;-65
2022/01/17 00:50:31;;;;;;;19.00;5.93;;;;;;;-1.18;79.25;97029.00;5010208;28;20046;-65
2022/01/17 00:53:02;;;;;;;15.20;5.23;;;;;;;-1.17;79.20;97026.38;5009975;28;20112;-66
2022/01/17 00:55:29;;;;;;;10.10;4.83;;;;;;;-1.13;79.40;97022.78;5010152;28;20042;-65
2022/01/17 00:57:56;;;;;;;13.57;5.77;;;;;;;-1.12;79.23;97015.88;5009747;28;20566;-65
2022/01/17 01:00:24;;;;;;;16.63;6.10;;;;;;;-1.12;79.43;97024.50;5009904;28;20038;-64
2022/01/17 01:02:52;;;;;;;11.60;5.70;;;;;;;-1.11;79.50;97026.16;5022290;28;20133;-64
2022/01/17 01:05:20;;;;;;;9.70;4.40;;;;;;;-1.09;79.62;97026.94;5029992;28;20837;-65
2022/01/17 01:07:47;;;;;;;15.03;5.50;;;;;;;-1.08;79.79;97031.22;5029852;28;20115;-65
2022/01/17 01:10:16;;;;;;;13.67;5.77;;;;;;;-1.06;80.04;97024.25;5029830;28;20096;-65
2022/01/17 01:12:45;;;;;;;13.07;4.47;;;;;;;-1.06;79.53;97010.53;5029404;28;20227;-66
2022/01/17 01:15:19;;;;;;;15.77;4.50;;;;;;;-1.06;79.95;97001.03;5029744;28;20045;-65
2022/01/17 01:17:52;;;;;;;16.77;5.80;;;;;;;-1.02;79.94;97001.78;5031316;28;20437;-65
2022/01/17 01:20:47;;;;;;;13.23;5.05;;;;;;;-0.99;79.51;97010.25;5030429;28;20053;-64
2022/01/17 01:28:45;;;;;;;14.57;5.03;;;;;;;-0.85;79.61;96983.94;5029265;28;20045;-66
2022/01/17 01:31:15;;;;;;;12.00;4.57;;;;;;;-0.85;79.59;96966.72;5028660;28;20056;-66
2022/01/17 01:33:50;;;;;;;10.30;4.70;;;;;;;-0.81;79.92;96977.75;5029277;28;20124;-65
2022/01/17 01:36:23;;;;;;;12.87;5.87;;;;;;;-0.82;80.24;96952.84;5028993;28;20041;-65
2022/01/17 01:38:50;;;;;;;14.52;5.35;;;;;;;-0.81;80.04;96957.97;5029168;28;20061;-65
2022/01/17 01:41:17;;;;;;;15.10;6.37;;;;;;;-0.83;80.20;96946.84;5028807;28;20046;-64
2022/01/17 01:43:44;;;;;;;16.07;6.07;;;;;;;-0.81;80.58;96934.72;5027902;28;20505;-64
2022/01/17 01:46:14;;;;;;;16.60;5.97;;;;;;;-0.82;80.68;96930.47;5029129;28;20052;-64
2022/01/17 01:48:41;;;;;;;19.10;5.93;;;;;;;-0.81;80.96;96933.88;5016730;28;20075;-66
2022/01/17 01:51:09;;;;;;;19.30;6.13;;;;;;;-0.77;81.29;96928.53;5009258;28;20052;-65
2022/01/17 01:53:38;;;;;;;14.30;6.53;;;;;;;-0.77;81.13;96931.13;5009292;28;20048;-66
2022/01/17 01:56:06;;;;;;;19.03;7.60;;;;;;;-0.79;81.76;96942.41;5009827;28;20751;-65
2022/01/17 01:58:33;;;;;;;9.33;4.33;;;;;;;-0.78;81.55;96926.88;5009452;28;20037;-65
2022/01/17 02:01:00;;;;;;;16.43;6.40;;;;;;;-0.79;82.38;96921.75;5009419;28;20041;-65
2022/01/17 02:03:27;;;;;;;16.60;6.67;;;;;;;-0.75;82.28;96915.59;5009969;28;20053;-65
2022/01/17 02:05:54;;;;;;;15.80;5.80;;;;;;;-0.77;82.56;96907.91;5010134;28;20054;-65
2022/01/17 02:08:21;;;;;;;13.63;6.03;;;;;;;-0.78;83.00;96911.38;5009968;28;20049;-66
2022/01/17 02:10:50;;;;;;;16.10;6.37;;;;;;;-0.77;83.01;96900.16;5010155;28;20061;-65
2022/01/17 02:13:17;;;;;;;14.13;6.90;;;;;;;-0.81;83.53;96898.59;5009424;28;20117;-65
2022/01/17 02:15:46;;;;;;;14.10;6.87;;;;;;;-0.85;84.33;96896.16;5010380;28;20085;-66
2022/01/17 02:18:19;;;;;;;20.03;7.03;;;;;;;-0.82;84.53;96890.91;5027684;28;20049;-65
2022/01/17 02:21:09;;;;;;;18.42;7.00;;;;;;;-0.81;84.41;96877.06;5028768;28;20433;-65
2022/01/17 02:23:35;;;;;;;17.43;6.57;;;;;;;-0.75;84.61;96882.88;5027170;28;20366;-66
2022/01/17 02:26:02;;;;;;;19.23;8.17;;;;;;;-0.75;84.72;96877.72;5028584;28;20053;-64
2022/01/17 02:28:29;;;;;;;13.67;6.93;;;;;;;-0.75;85.03;96907.84;5028615;28;20041;-64
2022/01/17 02:30:56;;;;;;;15.47;6.97;;;;;;;-0.73;84.82;96906.03;5028890;28;20509;-65
2022/01/17 02:33:23;;;;;;;16.17;7.40;;;;;;;-0.73;85.00;96903.44;5028782;28;20136;-64
2022/01/17 02:35:52;;;;;;;19.67;7.67;;;;;;;-0.76;85.46;96891.50;5028414;28;20060;-65
2022/01/17 02:38:19;;;;;;;19.97;7.77;;;;;;;-0.69;85.95;96882.63;5016771;28;20064;-65
2022/01/17 02:40:46;;;;;;;20.07;7.83;;;;;;;-0.67;86.12;96887.72;5008664;28;20446;-65
2022/01/17 02:43:14;;;;;;;12.00;6.67;;;;;;;-0.67;86.54;96878.25;5011571;28;20579;-65
2022/01/17 02:48:24;;;;;;;15.57;6.07;;;;;;;-0.65;86.46;96868.69;5013877;28;20117;-65
2022/01/17 02:50:53;;;;;;;20.60;8.13;;;;;;;-0.70;86.89;96865.44;5011841;28;20065;-65
2022/01/17 02:53:21;;;;;;;14.90;6.90;;;;;;;-0.73;87.35;96868.16;5032110;28;20053;-66
2022/01/17 02:55:50;;;;;;;13.17;6.20;;;;;;;-0.72;87.51;96850.94;5031899;28;20049;-65
2022/01/17 02:58:20;;;;;;;16.77;7.63;;;;;;;-0.68;87.51;96835.22;5031821;28;20045;-65
2022/01/17 03:00:47;;;;;;;18.67;7.33;;;;;;;-0.67;88.19;96830.91;5031659;28;20045;-65
2022/01/17 03:03:15;;;;;;;15.70;7.50;;;;;;;-0.78;88.86;96827.91;5032636;28;20048;-65
2022/01/17 03:05:43;;;;;;;15.10;8.33;;;;;;;-0.84;89.00;96828.16;5031473;28;20122;-64
2022/01/17 03:08:12;;;;;;;19.40;6.97;;;;;;;-0.89;89.26;96823.19;5031883;28;20045;-65
2022/01/17 03:10:39;;;;;;;16.07;7.40;;;;;;;-0.87;89.73;96844.59;5031920;28;20056;-64
2022/01/17 03:13:09;;;;;;;15.53;6.93;;;;;;;-0.87;90.59;96839.44;5012291;28;20053;-64
2022/01/17 03:15:37;;;;;;;18.03;7.10;;;;;;;-0.86;90.38;96825.63;5012342;28;20386;-65
2022/01/17 03:18:04;;;;;;;13.60;7.57;;;;;;;-0.91;91.09;96798.31;5010451;28;20046;-64
2022/01/17 03:20:32;;;;;;;15.90;7.30;;;;;;;-0.95;92.14;96831.13;5012166;28;20486;-65
2022/01/17 03:22:59;;;;;;;20.07;8.73;;;;;;;-1.02;93.27;96809.03;5011505;28;20069;-65
2022/01/17 03:25:27;;;;;;;14.27;7.63;;;;;;;-1.08;94.75;96806.72;5011853;28;20065;-65
2022/01/17 03:27:55;;;;;;;17.70;7.43;;;;;;;-1.10;95.59;96821.41;5012742;28;20065;-65
2022/01/17 03:30:23;;;;;;;19.63;8.53;;;;;;;-1.10;96.90;96815.38;5011855;28;20049;-65
2022/01/17 03:32:51;;;;;;;17.10;7.67;;;;;;;-1.14;97.96;96791.44;5011351;28;20481;-65
2022/01/17 03:35:18;;;;;;;19.57;8.87;;;;;;;-1.18;99.08;96823.44;5010577;28;20050;-65
2022/01/17 03:37:45;;;;;;;20.33;8.27;;;;;;;-1.16;100.00;96813.88;5029995;28;20053;-64
2022/01/17 03:40:14;;;;;;;17.67;8.73;;;;;;;-1.12;100.00;96815.47;5030961;28;20099;-64
2022/01/17 03:42:42;;;;;;;20.83;8.33;;;;;;;-1.11;100.00;96818.88;5031592;28;20127;-64
2022/01/17 03:45:11;;;;;;;18.00;7.27;;;;;;;-1.12;100.00;96814.63;5029795;28;20494;-66
2022/01/17 03:47:39;;;;;;;16.40;7.30;;;;;;;-1.10;100.00;96816.25;5031021;28;20053;-65
2022/01/17 03:50:11;;;;;;;14.87;7.07;;;;;;;-1.06;100.00;96804.06;5030774;28;21537;-64
2022/01/17 03:52:39;;;;;;;18.70;7.67;;;;;;;-1.07;100.00;96805.81;5031267;28;20049;-64
2022/01/17 03:55:07;;;;;;;17.43;8.53;;;;;;;-1.05;100.00;96793.66;5030252;28;20068;-64
2022/01/17 03:57:34;;;;;;;12.80;5.53;;;;;;;-0.99;100.00;96783.13;5031003;28;20045;-64
2022/01/17 04:00:05;;;;;;;14.73;6.87;;;;;;;-0.97;99.92;96777.91;5030970;28;20072;-64
2022/01/17 04:02:39;;;;;;;15.57;8.03;;;;;;;-0.95;99.33;96774.34;5031197;28;20042;-64
2022/01/17 04:05:07;;;;;;;16.03;7.80;;;;;;;-0.89;99.12;96763.81;5031132;28;20045;-64
2022/01/17 04:07:34;;;;;;;15.77;7.53;;;;;;;-0.96;99.13;96767.53;5031737;28;20149;-65
2022/01/17 04:10:02;;;;;;;13.87;7.57;;;;;;;-0.97;99.59;96771.00;5030600;28;20041;-66
2022/01/17 04:12:29;;;;;;;17.60;7.90;;;;;;;-0.94;99.90;96763.13;5031138;28;20359;-65
2022/01/17 04:14:56;;;;;;;13.90;6.70;;;;;;;-0.95;100.00;96766.63;5030470;28;20104;-64
2022/01/17 04:17:28;;;;;;;19.87;8.23;;;;;;;-0.93;100.00;96762.25;5030383;28;20130;-66
2022/01/17 04:20:02;;;;;;;16.17;8.60;;;;;;;-0.97;100.00;96772.75;5030640;28;20429;-65
2022/01/17 04:22:31;;;;;;;18.63;9.27;;;;;;;-0.93;100.00;96784.63;5030338;28;20063;-65
2022/01/17 04:24:58;;;;;;;16.87;7.87;;;;;;;-0.95;100.00;96779.50;5030417;28;20138;-65
2022/01/17 04:27:24;;;;;;;15.23;7.70;;;;;;;-0.95;100.00;96776.13;5024198;28;20558;-65
2022/01/17 04:29:52;;;;;;;22.37;8.40;;;;;;;-1.00;100.00;96776.28;5010300;28;20057;-65
2022/01/17 04:32:19;;;;;;;15.97;7.47;;;;;;;-0.93;100.00;96769.13;5010741;28;20403;-64
2022/01/17 04:34:47;;;;;;;16.67;8.57;;;;;;;-0.96;100.00;96758.94;5010550;28;20095;-65
2022/01/17 04:37:14;;;;;;;18.60;8.83;;;;;;;-0.94;100.00;96757.97;5010567;28;20049;-65
2022/01/17 04:39:41;;;;;;;16.63;8.17;;;;;;;-0.91;100.00;96739.78;5009211;28;20813;-64
2022/01/17 04:42:12;;;;;;;14.17;6.43;;;;;;;-0.90;100.00;96748.38;5010449;28;20056;-64
2022/01/17 04:47:25;;;;;;;15.97;7.63;;;;;;;-0.90;100.00;96759.56;5006901;28;20398;-65
2022/01/17 04:49:54;;;;;;;20.93;9.33;;;;;;;-0.91;100.00;96739.78;5009845;28;20080;-65
2022/01/17 04:52:21;;;;;;;20.13;8.67;;;;;;;-0.92;100.00;96742.41;5010298;28;20133;-65
2022/01/17 04:54:53;;;;;;;16.77;9.33;;;;;;;-0.95;100.00;96727.91;5009998;28;20534;-64
2022/01/17 04:57:21;;;;;;;16.93;9.47;;;;;;;-0.92;100.00;96734.66;5010173;28;20053;-66
2022/01/17 04:59:48;;;;;;;15.53;7.13;;;;;;;-0.88;100.00;96723.31;5010060;28;20411;-66
2022/01/17 05:02:17;;;;;;;14.33;6.93;;;;;;;-0.85;100.00;96723.19;5010371;28;20613;-66
2022/01/17 05:04:45;;;;;;;13.87;7.17;;;;;;;-0.86;100.00;96706.03;5025930;28;20160;-65
2022/01/17 05:07:14;;;;;;;16.87;8.87;;;;;;;-0.85;100.00;96697.38;5010225;28;20073;-65
2022/01/17 05:09:42;;;;;;;15.80;7.87;;;;;;;-0.82;100.00;96702.44;5010066;28;20061;-65
2022/01/17 05:12:11;;;;;;;14.83;7.33;;;;;;;-0.80;100.00;96709.22;5010228;28;21557;-65
2022/01/17 05:14:40;;;;;;;14.90;7.53;;;;;;;-0.77;100.00;96696.19;5009765;28;20034;-65
2022/01/17 05:17:22;;;;;;;17.77;8.43;;;;;;;-0.80;100.00;96716.94;5010885;28;20050;-65
2022/01/17 05:19:51;;;;;;;17.93;8.60;;;;;;;-0.74;100.00;96696.06;5009504;28;20384;-64
2022/01/17 05:22:20;;;;;;;17.57;7.20;;;;;;;-0.73;100.00;96691.72;5009623;28;20112;-64
2022/01/17 05:24:48;;;;;;;16.93;8.63;;;;;;;-0.79;100.00;96685.06;5009206;28;20065;-64
2022/01/17 05:27:15;;;;;;;15.93;6.43;;;;;;;-0.76;100.00;96697.84;5009551;28;20048;-64
2022/01/17 05:29:43;;;;;;;18.07;8.33;;;;;;;-0.77;100.00;96703.94;5009805;28;20037;-66
2022/01/17 05:32:10;;;;;;;17.07;7.73;;;;;;;-0.73;100.00;96687.41;5009300;28;20046;-64
2022/01/17 05:34:40;;;;;;;19.27;9.27;;;;;;;-0.73;100.00;96689.13;5009571;28;20053;-65
2022/01/17 05:37:07;;;;;;;14.20;6.80;;;;;;;-0.72;100.00;96708.91;5009274;28;20045;-64
2022/01/17 05:39:36;;;;;;;16.00;8.70;;;;;;;-0.77;100.00;96674.69;5009155;28;20050;-65
2022/01/17 05:42:05;;;;;;;18.00;8.57;;;;;;;-0.74;100.00;96666.81;5008971;28;20037;-64
2022/01/17 05:44:32;;;;;;;14.37;7.07;;;;;;;-0.73;100.00;96664.16;5009227;28;20495;-65
2022/01/17 05:47:00;;;;;;;14.90;7.83;;;;;;;-0.77;100.00;96651.44;5010414;28;20088;-65
2022/01/17 05:49:27;;;;;;;18.63;6.77;;;;;;;-0.80;100.00;96655.00;5009338;28;20123;-64
2022/01/17 05:51:54;;;;;;;21.13;7.27;;;;;;;-0.81;100.00;96648.16;5009220;28;20053;-66
2022/01/17 05:54:21;;;;;;;17.70;7.17;;;;;;;-0.81;100.00;96645.59;5008696;28;20053;-65
2022/01/17 05:56:49;;;;;;;20.63;9.03;;;;;;;-0.81;100.00;96645.59;5008135;28;20066;-64
2022/01/17 05:59:16;;;;;;;17.33;7.90;;;;;;;-0.75;100.00;96626.41;5009319;28;20034;-65
2022/01/17 06:01:44;;;;;;;14.13;6.63;;;;;;;-0.78;100.00;96627.38;5009924;28;20046;-64
2022/01/17 06:04:11;;;;;;;14.27;6.80;;;;;;;-0.79;100.00;96615.34;5009723;28;20049;-65
2022/01/17 06:06:38;;;;;;;23.63;7.83;;;;;;;-0.77;100.00;96613.56;5008796;28;20038;-65
2022/01/17 06:09:05;;;;;;;14.27;7.23;;;;;;;-0.78;100.00;96591.25;5009235;28;20376;-65
2022/01/17 06:11:34;;;;;;;17.47;8.30;;;;;;;-0.72;100.00;96608.22;5008997;28;20133;-64
2022/01/17 06:14:03;;;;;;;17.13;8.10;;;;;;;-0.67;100.00;96620.03;5013772;28;20041;-65
2022/01/17 06:16:31;;;;;;;13.63;7.63;;;;;;;-0.65;100.00;96604.47;5028606;28;20049;-65
2022/01/17 06:18:58;;;;;;;17.83;7.77;;;;;;;-0.64;100.00;96590.66;5031535;28;20049;-65
2022/01/17 06:21:26;;;;;;;13.20;6.53;;;;;;;-0.62;100.00;96594.00;5032744;28;20042;-64
2022/01/17 06:23:53;;;;;;;13.23;6.83;;;;;;;-0.61;100.00;96588.75;5033784;28;20045;-64
2022/01/17 06:26:21;;;;;;;11.93;7.67;;;;;;;-0.57;100.00;96579.16;5032571;28;20049;-64
2022/01/17 06:28:48;;;;;;;15.27;7.20;;;;;;;-0.53;100.00;96565.19;5032388;28;20441;-65
2022/01/17 06:31:16;;;;;;;14.97;6.23;;;;;;;-0.54;100.00;96569.50;5018514;28;20049;-64
2022/01/17 06:33:43;;;;;;;14.67;7.17;;;;;;;-0.52;100.00;96567.72;5012327;28;20070;-65
2022/01/17 06:36:10;;;;;;;18.30;8.20;;;;;;;-0.47;100.00;96568.34;5012313;28;20030;-65
2022/01/17 06:38:37;;;;;;;14.27;5.70;;;;;;;-0.44;100.00;96559.63;5010970;28;20471;-65
2022/01/17 06:41:04;;;;;;;13.80;7.53;;;;;;;-0.41;100.00;96551.72;5027358;28;20498;-64
2022/01/17 06:43:32;;;;;;;12.20;6.47;;;;;;;-0.40;100.00;96536.16;5032157;28;20045;-63
2022/01/17 06:45:59;;;;;;;15.03;7.20;;;;;;;-0.42;100.00;96517.34;5032688;28;20072;-64
2022/01/17 06:48:27;;;;;;;18.80;7.83;;;;;;;-0.36;100.00;96532.53;5033397;28;20056;-65
2022/01/17 06:50:54;;;;;;;13.50;7.37;;;;;;;-0.30;100.00;96521.94;5034029;28;20045;-64
2022/01/17 06:53:26;;;;;;;17.43;8.30;;;;;;;-0.28;100.00;96514.94;5032172;28;20044;-64
2022/01/17 06:55:53;;;;;;;11.77;7.63;;;;;;;-0.27;100.00;96506.31;5020498;28;20049;-65
2022/01/17 06:58:20;;;;;;;16.00;8.63;;;;;;;-0.26;100.00;96500.22;5019640;28;20100;-64
2022/01/17 07:00:47;;;;;;;18.67;7.00;;;;;;;-0.22;100.00;96472.47;5020697;28;20056;-64
2022/01/17 07:03:15;;;;;;;18.17;7.80;;;;;;;-0.29;100.00;96471.94;5021083;28;20057;-64
2022/01/17 07:05:43;;;;;;;15.83;7.73;;;;;;;-0.20;100.00;96468.94;5022645;28;20045;-64
2022/01/17 07:08:11;;;;;;;16.57;7.87;;;;;;;-0.11;100.00;96463.31;5017640;28;20041;-64
2022/01/17 07:10:38;;;;;;;13.23;7.60;;;;;;;-0.02;100.00;96473.22;5021360;28;20048;-65
2022/01/17 07:13:05;;;;;;;9.53;6.17;;;;;;;-0.03;100.00;96487.06;5012337;28;20092;-64
2022/01/17 07:15:32;;;;;;;13.47;5.93;;;;;;;0.02;100.00;96507.53;5017147;28;20068;-65
2022/01/17 07:17:59;;;;;;;12.63;6.33;;;;;;;0.04;100.00;96513.44;5023905;28;20048;-64
2022/01/17 07:20:26;;;;;;;10.63;4.63;;;;;;;0.07;100.00;96552.09;5026285;28;20047;-66
2022/01/17 07:22:55;;;;;;;11.63;6.27;;;;;;;0.07;100.00;96544.34;5021114;28;20045;-66
2022/01/17 07:25:22;;;;;;;13.00;6.57;;;;;;;0.07;100.00;96531.41;5023245;28;20038;-66
2022/01/17 07:27:49;;;;;;;15.20;6.87;;;;;;;0.11;100.00;96533.78;5013393;28;20382;-64
2022/01/17 07:30:16;;;;;;;12.00;6.60;;;;;;;0.11;100.00;96520.84;5012415;28;20037;-66
2022/01/17 07:32:43;;;;;;;12.10;6.83;;;;;;;0.10;100.00;96490.75;5019094;28;20045;-65
2022/01/17 07:35:11;;;;;;;15.60;7.57;;;;;;;0.10;100.00;96490.75;5015808;28;20049;-65
2022/01/17 07:37:38;;;;;;;13.53;6.60;;;;;;;0.09;100.00;96483.88;5016747;28;20064;-65
2022/01/17 07:40:09;;;;;;;12.77;6.50;;;;;;;0.11;100.00;96483.81;5022936;28;20522;-65
2022/01/17 07:42:36;;;;;;;11.73;6.20;;;;;;;0.13;100.00;96476.84;5013565;28;20069;-65
2022/01/17 07:45:10;;;;;;;17.60;6.30;;;;;;;0.12;100.00;96470.00;5012405;28;20045;-66
2022/01/17 07:47:43;;;;;;;15.03;8.00;;;;;;;0.21;100.00;96441.09;5021853;28;20518;-68
2022/01/17 07:50:14;;;;;;;;;;;;;;;0.31;100.00;96432.00;5019139;28;20120;-68
2022/01/17 07:52:41;;;;;;;13.03;7.00;;;;;;;0.32;100.00;96436.25;5013963;28;19979;-68
2022/01/17 07:55:10;;;;;;;11.90;6.27;;;;;;;0.37;100.00;96423.91;5014084;28;20041;-69
2022/01/17 07:57:38;;;;;;;13.33;6.27;;;;;;;0.36;100.00;96407.56;5016420;28;20056;-69
2022/01/17 08:00:07;;;;;;;10.67;6.87;;;;;;;0.31;100.00;96393.19;5014492;28;20049;-66
2022/01/17 08:02:34;;;;;;;12.07;6.30;;;;;;;0.26;100.00;96401.19;5014153;28;20495;-68
2022/01/17 08:05:02;;;;;;;11.00;5.30;;;;;;;0.29;100.00;96403.63;5014898;28;20073;-68
2022/01/17 08:07:29;;;;;;;13.20;6.73;;;;;;;0.25;100.00;96415.03;5015491;28;20493;-69
2022/01/17 08:09:56;;;;;;;10.07;4.93;;;;;;;0.28;100.00;96409.72;5016968;28;20480;-68
2022/01/17 08:12:25;;;;;;;9.30;5.27;;;;;;;0.37;100.00;96408.38;5014375;28;20045;-67
2022/01/17 08:14:52;;;;;;;9.87;5.63;;;;;;;0.60;100.00;96416.69;5014721;28;20117;-67
2022/01/17 08:17:19;;;;;;;11.80;6.13;;;;;;;0.85;100.00;96392.97;5014753;28;20045;-68
2022/01/17 08:19:47;;;;;;;10.60;6.30;;;;;;;1.15;100.00;96412.09;5017795;28;20132;-68
2022/01/17 08:22:14;;;;;;;11.40;5.97;;;;;;;1.15;100.00;96397.38;5015370;28;20053;-69
2022/01/17 08:24:41;;;;;;;11.80;5.57;;;;;;;1.16;100.00;96383.50;5015158;28;20499;-68
2022/01/17 08:27:08;;;;;;;10.33;5.73;;;;;;;1.29;100.00;96378.50;5015317;28;20080;-69
2022/01/17 08:29:37;;;;;;;9.00;4.83;;;;;;;1.54;99.33;96352.94;5017006;28;20054;-68
2022/01/17 08:32:06;;;;;;;8.87;5.30;;;;;;;1.68;97.75;96292.53;5017913;28;20076;-69
2022/01/17 08:34:34;;;;;;;9.37;5.20;;;;;;;1.71;96.52;96289.78;5016757;28;20058;-68
2022/01/17 08:37:02;;;;;;;7.90;4.60;;;;;;;1.88;96.30;96284.47;5015480;28;20046;-68
2022/01/17 08:39:29;;;;;;;10.60;5.37;;;;;;;1.90;95.29;96249.75;5021076;28;20405;-69
2022/01/17 08:41:56;;;;;;;8.27;4.37;;;;;;;2.03;94.88;96261.06;5019969;28;20446;-67
2022/01/17 08:44:23;;;;;;;9.20;4.87;;;;;;;2.11;94.10;96265.81;5018640;28;20530;-68
2022/01/17 08:46:52;;;;;;;8.60;4.97;;;;;;;2.16;93.74;96232.66;5016909;28;20514;-69
2022/01/17 08:49:20;;;;;;;11.20;5.17;;;;;;;1.96;93.28;96257.19;5015362;28;20133;-69
2022/01/17 08:51:47;;;;;;;10.90;5.47;;;;;;;1.99;93.27;96276.91;5016494;28;20074;-71
2022/01/17 08:54:15;;;;;;;24.27;5.97;;;;;;;1.98;93.06;96259.66;5017887;28;20052;-70
2022/01/17 08:56:42;;;;;;;8.37;4.00;;;;;;;1.90;92.93;96256.69;5017567;28;20547;-71
2022/01/17 08:59:09;;;;;;;7.00;3.97;;;;;;;1.83;93.20;96250.19;5020541;28;20406;-72
2022/01/17 09:01:36;;;;;;;6.50;4.27;;;;;;;1.56;94.62;96244.00;5014780;28;20045;-71
2022/01/17 09:04:05;;;;;;;5.77;3.47;;;;;;;1.33;94.84;96225.44;5018945;28;20037;-72
2022/01/17 09:06:32;;;;;;;7.63;4.20;;;;;;;1.21;96.19;96226.13;5016505;28;20168;-71
2022/01/17 09:08:59;;;;;;;8.90;4.47;;;;;;;1.02;96.56;96229.81;5020583;28;20092;-72
2022/01/17 09:11:28;;;;;;;8.53;4.80;;;;;;;1.02;97.43;96209.09;5012876;28;20058;-71
2022/01/17 09:13:55;;;;;;;8.07;4.23;;;;;;;0.97;98.04;96227.47;5020252;28;20049;-71
2022/01/17 09:16:22;;;;;;;7.40;4.87;;;;;;;1.00;98.65;96197.97;5011248;28;20065;-69
2022/01/17 09:18:52;;;;;;;10.20;4.93;;;;;;;0.90;98.24;96202.84;5013140;28;20168;-67
2022/01/17 09:21:20;;;;;;;8.73;4.67;;;;;;;0.89;98.48;96177.03;5018870;28;20049;-71
2022/01/17 09:23:48;;;;;;;10.00;5.63;;;;;;;0.92;98.06;96180.31;5018979;28;20044;-72
2022/01/17 09:26:15;;;;;;;11.87;4.87;;;;;;;0.97;97.15;96183.47;5016595;28;20049;-72
2022/01/17 09:28:44;;;;;;;7.83;3.87;;;;;;;1.03;97.20;96162.41;5017784;28;20049;-74
2022/01/17 09:31:11;;;;;;;11.07;4.93;;;;;;;1.21;96.94;96165.72;5013946;28;20060;-72
2022/01/17 09:33:38;;;;;;;12.90;5.67;;;;;;;1.38;96.52;96149.22;5015237;28;20054;-74
2022/01/17 09:36:05;;;;;;;10.30;4.50;;;;;;;1.61;95.63;96136.59;5014895;28;20042;-72
2022/01/17 09:38:34;;;;;;;7.87;3.90;;;;;;;1.58;94.21;96141.94;5017885;28;20060;-73
2022/01/17 09:41:01;;;;;;;10.23;4.13;;;;;;;1.69;93.91;96143.91;5015494;28;20376;-72
2022/01/17 09:43:28;;;;;;;8.83;4.60;;;;;;;1.60;93.68;96121.13;5010592;28;20042;-72
2022/01/17 09:45:56;;;;;;;6.17;3.50;;;;;;;1.56;94.83;96128.25;5021938;28;20129;-72
2022/01/17 09:48:33;;;;;;;9.50;4.77;;;;;;;1.46;95.43;96116.75;5016117;28;20053;-70
2022/01/17 09:51:04;;;;;;;8.87;4.43;;;;;;;1.32;97.06;96105.56;5013572;28;20471;-68
2022/01/17 09:53:38;;;;;;;9.20;5.80;;;;;;;1.20;99.11;96109.66;5016875;28;20483;-65
2022/01/17 09:56:07;;;;;;;5.67;3.63;;;;;;;1.17;99.69;96096.91;5015497;28;20050;-70
2022/01/17 09:58:36;;;;;;;8.47;5.03;;;;;;;1.13;100.00;96104.03;5010570;28;20045;-70
2022/01/17 10:01:04;;;;;;;21.43;5.73;;;;;;;1.06;100.00;96107.88;5025193;28;20057;-68
2022/01/17 10:03:33;;;;;;;11.43;5.87;;;;;;;0.92;100.00;96089.72;5017081;28;20088;-68
2022/01/17 10:06:00;;;;;;;6.97;3.93;;;;;;;0.98;100.00;96083.34;5017278;28;20095;-68
2022/01/17 10:08:27;;;;;;;10.47;5.07;;;;;;;0.91;100.00;96098.41;5026270;28;20072;-70
2022/01/17 10:10:59;;;;;;;9.43;4.77;;;;;;;0.93;100.00;96081.00;5021256;28;20053;-69
2022/01/17 10:13:28;;;;;;;9.90;4.13;;;;;;;0.87;100.00;96070.19;5018204;28;20045;-70
2022/01/17 10:16:04;;;;;;;8.63;4.37;;;;;;;0.84;100.00;96063.44;5019518;28;20056;-68
2022/01/17 10:18:35;;;;;;;11.83;5.50;;;;;;;0.72;100.00;96082.22;5014623;28;20049;-70
2022/01/17 10:21:07;;;;;;;6.90;4.43;;;;;;;0.51;100.00;96061.91;5019496;28;20049;-70
2022/01/17 10:24:10;;;;;;;10.50;4.93;;;;;;;0.49;100.00;96043.88;5010619;28;20038;-65
2022/01/17 10:30:08;;;;;;;6.47;4.00;;;;;;;0.61;100.00;96029.44;5021266;28;20103;-65
2022/01/17 10:35:22;;;;;;;11.83;6.07;;;;;;;0.57;100.00;96015.00;5020380;28;20219;-66
2022/01/17 10:37:57;;;;;;;9.50;4.83;;;;;;;0.40;100.00;96022.88;5012596;28;20045;-67
2022/01/17 10:40:25;;;;;;;8.70;4.57;;;;;;;0.32;100.00;96028.50;5022513;28;20045;-67
2022/01/17 10:42:55;;;;;;;12.33;4.83;;;;;;;0.31;100.00;96028.59;5019673;28;20163;-65
2022/01/17 10:45:24;;;;;;;8.87;5.40;;;;;;;0.31;100.00;96031.16;5020397;28;20136;-64
2022/01/17 10:47:53;;;;;;;8.30;4.43;;;;;;;0.29;100.00;96025.22;5015142;28;20489;-71
2022/01/17 10:50:23;;;;;;;8.87;4.70;;;;;;;0.31;100.00;96013.06;5014963;28;20057;-70
2022/01/17 10:52:52;;;;;;;8.30;5.00;;;;;;;0.33;100.00;96012.06;5010355;28;20045;-72
2022/01/17 10:55:21;;;;;;;7.37;3.97;;;;;;;0.37;100.00;95995.44;5024288;28;20096;-71
2022/01/17 10:57:51;;;;;;;7.93;3.73;;;;;;;0.43;100.00;95987.34;5020052;28;20046;-70
2022/01/17 11:00:23;;;;;;;7.77;5.10;;;;;;;0.48;100.00;95992.25;5021747;28;20556;-70
2022/01/17 11:02:53;;;;;;;10.30;4.97;;;;;;;0.53;100.00;95975.53;5014291;28;20137;-72
2022/01/17 11:05:22;;;;;;;7.43;4.43;;;;;;;0.57;100.00;95981.38;5025505;28;20045;-73
2022/01/17 11:07:51;;;;;;;8.50;3.93;;;;;;;0.57;100.00;95969.25;5018297;28;20759;-74
2022/01/17 11:10:23;;;;;;;7.10;4.07;;;;;;;0.61;100.00;95957.84;5027680;28;20045;-74
2022/01/17 11:12:53;;;;;;;6.37;3.87;;;;;;;0.71;100.00;95960.72;5024434;28;20069;-72
2022/01/17 11:15:22;;;;;;;7.13;4.50;;;;;;;0.75;100.00;95949.28;5026200;28;20466;-71
2022/01/17 11:17:53;;;;;;;6.30;4.03;;;;;;;0.76;100.00;95936.25;5015933;28;20835;-71
2022/01/17 11:20:23;;;;;;;7.10;3.50;;;;;;;0.73;100.00;95936.44;5028406;28;20118;-71
2022/01/17 11:22:52;;;;;;;5.07;3.10;;;;;;;0.70;100.00;95920.22;5029137;28;20498;-73
2022/01/17 11:25:22;;;;;;;7.63;3.70;;;;;;;0.64;100.00;95915.44;5015976;28;20044;-71
2022/01/17 11:27:50;;;;;;;9.83;3.47;;;;;;;0.66;100.00;95917.00;5025522;28;20044;-72
2022/01/17 11:30:17;;;;;;;6.03;3.83;;;;;;;0.75;100.00;95900.94;5028852;28;20049;-74
2022/01/17 11:32:47;;;;;;;7.60;3.40;;;;;;;0.74;100.00;95922.56;5023771;28;20038;-73
2022/01/17 11:35:21;;;;;;;6.60;3.50;;;;;;;0.68;100.00;95919.50;5025611;28;20394;-74
2022/01/17 11:37:53;;;;;;;6.47;3.40;;;;;;;0.70;100.00;95912.47;5014898;28;20107;-74
2022/01/17 11:40:22;;;;;;;13.07;3.63;;;;;;;0.76;100.00;95896.59;5028125;28;20060;-74
2022/01/17 11:42:51;;;;;;;6.20;3.57;;;;;;;0.78;100.00;95910.25;5029092;28;20060;-74
2022/01/17 11:45:39;;;;;;;8.93;4.80;;;;;;;0.87;100.00;95915.75;5028564;28;20052;-73
2022/01/17 11:48:17;;;;;;;8.93;4.40;;;;;;;0.80;100.00;95922.22;5017121;28;20044;-73
2022/01/17 11:50:47;;;;;;;5.37;3.37;;;;;;;0.66;100.00;95895.47;5030079;28;20130;-71
2022/01/17 11:53:43;;;;;;;5.30;3.73;;;;;;;0.52;100.00;95870.41;5015392;28;20549;-73